createdAt,value
2023-02-18T00:01:13.475Z,0.00
2023-02-18T00:05:51.252Z,0.00
2023-02-18T00:08:19.659Z,0.00
2023-02-18T00:10:48.468Z,0.00
2023-02-18T00:13:16.407Z,0.00
2023-02-18T00:15:44.302Z,0.00
2023-02-18T00:18:12.790Z,0.00
2023-02-18T00:20:40.873Z,0.00
2023-02-18T00:23:09.179Z,0.00
2023-02-18T00:25:37.379Z,0.00
2023-02-18T00:28:05.700Z,0.00
2023-02-18T00:30:34.266Z,0.00
2023-02-18T00:33:02.555Z,0.00
2023-02-18T00:35:30.828Z,0.00
2023-02-18T00:38:01.869Z,0.00
2023-02-18T00:40:30.016Z,0.00
2023-02-18T00:42:58.096Z,0.00
2023-02-18T00:45:26.718Z,0.00
2023-02-18T00:47:55.511Z,0.00
2023-02-18T00:50:23.917Z,0.00
2023-02-18T00:52:52.264Z,0.00
2023-02-18T00:55:20.631Z,0.00
2023-02-18T00:57:49.211Z,0.00
2023-02-18T01:00:18.215Z,0.00
2023-02-18T01:02:46.352Z,0.00
2023-02-18T01:05:15.871Z,0.00
2023-02-18T01:07:43.930Z,0.00
2023-02-18T01:10:17.231Z,0.00
2023-02-18T01:12:47.105Z,0.00
2023-02-18T01:15:15.821Z,0.00
2023-02-18T01:17:44.853Z,0.00
2023-02-18T01:20:13.498Z,0.00
2023-02-18T01:22:43.121Z,0.00
2023-02-18T01:25:11.453Z,0.00
2023-02-18T01:27:41.580Z,0.00
2023-02-18T01:30:12.881Z,0.00
2023-02-18T01:32:41.507Z,0.00
2023-02-18T01:35:12.499Z,0.00
2023-02-18T01:37:40.504Z,0.00
2023-02-18T01:40:09.199Z,0.00
2023-02-18T01:42:38.079Z,0.00
2023-02-18T01:46:03.725Z,0.00
2023-02-18T01:48:39.580Z,0.00
2023-02-18T01:51:17.501Z,0.00
2023-02-18T01:53:56.624Z,0.00
2023-02-18T01:56:28.796Z,0.00
2023-02-18T01:58:58.235Z,0.00
2023-02-18T02:01:26.181Z,0.00
2023-02-18T02:03:54.561Z,0.00
2023-02-18T02:06:23.029Z,0.00
2023-02-18T02:08:58.159Z,0.00
2023-02-18T02:11:56.992Z,0.00
2023-02-18T02:14:50.911Z,0.00
2023-02-18T02:17:48.368Z,0.00
2023-02-18T02:20:28.374Z,0.00
2023-02-18T02:23:21.808Z,0.00
2023-02-18T02:26:51.471Z,0.00
2023-02-18T02:29:25.815Z,0.00
2023-02-18T02:32:17.435Z,0.00
2023-02-18T02:35:03.251Z,0.00
2023-02-18T02:37:44.661Z,0.00
2023-02-18T02:40:39.124Z,0.00
2023-02-18T02:43:28.930Z,0.00
2023-02-18T02:46:00.237Z,0.00
2023-02-18T02:49:03.141Z,0.00
2023-02-18T02:51:44.971Z,0.00
2023-02-18T02:54:19.585Z,0.00
2023-02-18T02:56:48.525Z,0.00
2023-02-18T02:59:24.038Z,0.00
2023-02-18T03:02:25.180Z,0.00
2023-02-18T03:05:11.089Z,0.00
2023-02-18T03:07:51.267Z,0.00
2023-02-18T03:10:45.443Z,0.00
2023-02-18T03:13:26.549Z,0.00
2023-02-18T03:16:25.780Z,0.00
2023-02-18T03:19:02.538Z,0.00
2023-02-18T03:21:38.769Z,0.00
2023-02-18T03:24:16.536Z,0.00
2023-02-18T03:26:47.616Z,0.00
2023-02-18T03:29:15.885Z,0.00
2023-02-18T03:31:45.615Z,0.00
2023-02-18T03:34:16.786Z,0.00
2023-02-18T03:36:45.093Z,0.00
2023-02-18T03:39:15.934Z,0.00
2023-02-18T03:41:43.958Z,0.00
2023-02-18T03:44:12.096Z,0.00
2023-02-18T03:46:45.634Z,0.00
2023-02-18T03:49:14.406Z,0.00
2023-02-18T03:51:42.825Z,0.00
2023-02-18T03:54:14.501Z,0.00
2023-02-18T03:56:42.795Z,0.00
2023-02-18T03:59:12.760Z,0.00
2023-02-18T04:01:42.230Z,0.00
2023-02-18T04:04:10.213Z,0.00
2023-02-18T04:06:40.212Z,0.00
2023-02-18T04:09:09.356Z,0.00
2023-02-18T04:11:39.157Z,0.00
2023-02-18T04:14:07.782Z,0.00
2023-02-18T04:16:37.244Z,0.00
2023-02-18T04:19:05.479Z,0.00
2023-02-18T04:21:34.063Z,0.00
2023-02-18T04:24:03.275Z,0.00
2023-02-18T04:26:31.306Z,0.00
2023-02-18T04:29:00.416Z,0.00
2023-02-18T04:38:42.208Z,1.23
2023-02-18T04:41:10.400Z,2.25
2023-02-18T04:43:39.077Z,3.78
2023-02-18T04:46:07.491Z,4.98
2023-02-18T04:48:36.797Z,6.30
2023-02-18T04:51:04.998Z,7.64
2023-02-18T04:53:33.722Z,8.93
2023-02-18T04:56:02.997Z,10.11
2023-02-18T04:58:31.457Z,11.05
2023-02-18T05:01:01.815Z,12.06
2023-02-18T05:03:33.979Z,13.18
2023-02-18T05:06:02.147Z,14.36
2023-02-18T05:08:30.435Z,15.77
2023-02-18T05:11:00.667Z,17.34
2023-02-18T05:13:28.723Z,18.85
2023-02-18T05:15:56.865Z,19.97
2023-02-18T05:18:25.135Z,21.55
2023-02-18T05:20:53.259Z,22.34
2023-02-18T05:23:21.560Z,23.23
2023-02-18T05:25:49.509Z,24.22
2023-02-18T05:28:19.858Z,25.04
2023-02-18T05:30:48.462Z,25.80
2023-02-18T05:33:17.504Z,26.36
2023-02-18T05:35:46.111Z,27.15
2023-02-18T05:38:14.307Z,27.47
2023-02-18T05:40:42.621Z,28.27
2023-02-18T05:43:10.798Z,28.98
2023-02-18T05:45:38.925Z,29.52
2023-02-18T05:48:06.948Z,30.66
2023-02-18T05:50:35.442Z,31.53
2023-02-18T05:53:03.962Z,32.55
2023-02-18T05:55:37.790Z,33.82
2023-02-18T05:58:06.105Z,35.26
2023-02-18T06:00:34.819Z,36.29
2023-02-18T06:03:03.598Z,37.48
2023-02-18T06:05:31.764Z,38.47
2023-02-18T06:07:59.992Z,39.50
2023-02-18T06:10:28.653Z,40.38
2023-02-18T06:12:57.397Z,41.64
2023-02-18T06:15:25.361Z,42.69
2023-02-18T06:17:54.118Z,44.01
2023-02-18T06:20:22.162Z,44.86
2023-02-18T06:22:50.240Z,45.32
2023-02-18T06:25:18.210Z,46.44
2023-02-18T06:27:52.179Z,47.26
2023-02-18T06:30:21.747Z,47.97
2023-02-18T06:32:50.612Z,48.47
2023-02-18T06:35:19.848Z,49.40
2023-02-18T06:37:48.918Z,50.18
2023-02-18T06:40:18.548Z,50.43
2023-02-18T06:42:46.484Z,51.33
2023-02-18T06:45:16.025Z,52.43
2023-02-18T06:47:44.726Z,53.75
2023-02-18T06:50:13.746Z,55.63
2023-02-18T06:52:41.967Z,57.06
2023-02-18T06:55:11.113Z,58.49
2023-02-18T06:57:39.411Z,60.28
2023-02-18T07:00:08.192Z,63.01
2023-02-18T07:02:37.633Z,66.05
2023-02-18T07:05:05.931Z,67.47
2023-02-18T07:07:34.642Z,68.04
2023-02-18T07:10:03.744Z,69.19
2023-02-18T07:12:35.515Z,70.61
2023-02-18T07:15:03.854Z,71.08
2023-02-18T07:17:33.160Z,72.25
2023-02-18T07:20:01.356Z,73.87
2023-02-18T07:22:30.856Z,75.26
2023-02-18T07:24:59.245Z,76.72
2023-02-18T07:27:27.491Z,78.37
2023-02-18T07:29:55.644Z,80.14
2023-02-18T07:32:23.835Z,81.95
2023-02-18T07:34:53.044Z,82.75
2023-02-18T07:37:21.172Z,82.97
2023-02-18T07:39:49.102Z,83.35
2023-02-18T07:42:17.096Z,84.07
2023-02-18T07:44:45.771Z,85.02
2023-02-18T07:47:14.941Z,86.12
2023-02-18T07:49:42.980Z,87.29
2023-02-18T07:52:11.156Z,87.83
2023-02-18T07:54:39.252Z,88.30
2023-02-18T07:57:07.734Z,87.91
2023-02-18T07:59:36.110Z,88.13
2023-02-18T08:02:05.727Z,88.26
2023-02-18T08:04:34.670Z,88.10
2023-02-18T08:07:02.852Z,88.39
2023-02-18T08:09:30.827Z,89.46
2023-02-18T08:11:58.934Z,89.92
2023-02-18T08:14:27.052Z,91.03
2023-02-18T08:16:59.165Z,92.38
2023-02-18T08:19:27.560Z,93.65
2023-02-18T08:21:55.509Z,94.31
2023-02-18T08:24:23.440Z,95.46
2023-02-18T08:27:00.208Z,96.28
2023-02-18T08:29:29.709Z,97.21
2023-02-18T08:31:58.438Z,98.27
2023-02-18T08:34:26.485Z,98.96
2023-02-18T08:36:54.592Z,98.98
2023-02-18T08:39:24.501Z,98.69
2023-02-18T08:41:52.639Z,98.59
2023-02-18T08:44:21.191Z,98.28
2023-02-18T08:46:49.622Z,98.16
2023-02-18T08:49:17.819Z,97.86
2023-02-18T08:51:45.888Z,97.74
2023-02-18T08:54:13.945Z,97.71
2023-02-18T08:56:45.576Z,97.88
2023-02-18T08:59:13.667Z,98.20
2023-02-18T09:01:41.752Z,98.66
2023-02-18T09:04:09.841Z,99.29
2023-02-18T09:06:38.976Z,99.23
2023-02-18T09:09:07.335Z,99.28
2023-02-18T09:11:36.693Z,98.96
2023-02-18T09:14:05.288Z,98.93
2023-02-18T09:16:33.355Z,98.53
2023-02-18T09:19:01.530Z,98.21
2023-02-18T09:21:29.774Z,97.76
2023-02-18T09:23:59.550Z,91.94
2023-02-18T09:26:28.131Z,91.32
2023-02-18T09:28:58.042Z,90.84
2023-02-18T09:31:27.154Z,90.45
2023-02-18T09:33:57.580Z,90.69
2023-02-18T09:36:26.489Z,91.56
2023-02-18T09:38:55.168Z,91.07
2023-02-18T09:41:30.177Z,91.07
2023-02-18T09:44:03.356Z,91.85
2023-02-18T09:46:36.566Z,92.48
2023-02-18T09:49:07.404Z,92.49
2023-02-18T09:51:36.085Z,92.71
2023-02-18T09:54:04.277Z,92.82
2023-02-18T09:56:35.549Z,92.56
2023-02-18T09:59:06.077Z,92.18
2023-02-18T10:01:37.514Z,91.49
2023-02-18T10:04:23.917Z,91.45
2023-02-18T10:06:53.055Z,91.35
2023-02-18T10:09:31.966Z,91.14
2023-02-18T10:12:14.780Z,90.90
2023-02-18T10:14:44.410Z,90.70
2023-02-18T10:17:14.291Z,90.64
2023-02-18T10:19:42.348Z,90.68
2023-02-18T10:22:14.975Z,90.86
2023-02-18T10:24:57.472Z,91.10
2023-02-18T10:27:33.798Z,91.52
2023-02-18T10:30:24.403Z,92.65
2023-02-18T10:32:56.454Z,93.36
2023-02-18T10:35:30.737Z,93.89
2023-02-18T10:38:17.392Z,93.80
2023-02-18T10:41:00.134Z,93.17
2023-02-18T10:43:53.555Z,92.83
2023-02-18T10:46:59.257Z,92.45
2023-02-18T10:50:03.404Z,91.95
2023-02-18T10:52:35.287Z,91.19
2023-02-18T10:55:09.577Z,91.01
2023-02-18T10:57:52.786Z,90.86
2023-02-18T11:00:29.327Z,90.56
2023-02-18T11:03:17.835Z,90.73
2023-02-18T11:05:47.210Z,90.90
2023-02-18T11:08:22.414Z,90.81
2023-02-18T11:10:51.353Z,90.53
2023-02-18T11:13:30.643Z,90.55
2023-02-18T11:16:06.301Z,90.66
2023-02-18T11:18:39.361Z,90.74
2023-02-18T11:21:21.881Z,91.01
2023-02-18T11:23:51.815Z,90.68
2023-02-18T11:26:33.490Z,90.24
2023-02-18T11:29:11.929Z,89.73
2023-02-18T11:31:45.347Z,88.95
2023-02-18T11:34:19.126Z,88.28
2023-02-18T11:36:47.677Z,87.81
2023-02-18T11:39:26.758Z,87.02
2023-02-18T11:42:02.068Z,86.35
2023-02-18T11:44:32.588Z,85.79
2023-02-18T11:47:10.569Z,85.61
2023-02-18T11:49:38.716Z,85.19
2023-02-18T11:52:19.742Z,84.76
2023-02-18T11:55:00.206Z,84.03
2023-02-18T11:57:28.967Z,83.02
2023-02-18T11:59:57.398Z,81.81
2023-02-18T12:02:30.645Z,80.43
2023-02-18T12:05:03.673Z,79.21
2023-02-18T12:07:40.032Z,78.03
2023-02-18T12:10:28.703Z,76.78
2023-02-18T12:13:19.837Z,75.77
2023-02-18T12:15:54.603Z,74.90
2023-02-18T12:18:31.244Z,74.36
2023-02-18T12:26:49.671Z,72.67
2023-02-18T12:29:37.172Z,73.03
2023-02-18T12:32:12.961Z,72.94
2023-02-18T12:35:02.156Z,72.49
2023-02-18T12:37:49.664Z,71.61
2023-02-18T12:40:40.910Z,70.60
2023-02-18T12:43:37.179Z,70.05
2023-02-18T12:46:17.093Z,69.00
2023-02-18T12:49:25.987Z,68.17
2023-02-18T12:51:57.807Z,66.99
2023-02-18T12:54:31.637Z,66.30
2023-02-18T12:57:35.189Z,65.71
2023-02-18T13:00:30.986Z,64.54
2023-02-18T13:03:25.072Z,63.70
2023-02-18T13:05:58.071Z,63.03
2023-02-18T13:08:48.290Z,62.28
2023-02-18T13:11:35.366Z,61.39
2023-02-18T13:14:13.238Z,60.94
2023-02-18T13:16:43.777Z,60.52
2023-02-18T13:19:18.023Z,60.48
2023-02-18T13:21:46.752Z,60.07
2023-02-18T13:24:22.390Z,59.86
2023-02-18T13:26:51.045Z,58.89
2023-02-18T13:29:34.645Z,57.98
2023-02-18T13:32:21.166Z,57.83
2023-02-18T13:34:54.661Z,57.60
2023-02-18T13:37:44.528Z,56.17
2023-02-18T13:42:38.420Z,57.31
2023-02-18T13:45:25.107Z,56.39
2023-02-18T13:47:53.483Z,56.19
2023-02-18T13:50:25.710Z,56.14
2023-02-18T13:53:03.352Z,56.05
2023-02-18T13:55:54.452Z,56.04
2023-02-18T13:58:33.063Z,55.91
2023-02-18T14:01:04.116Z,55.63
2023-02-18T14:03:45.228Z,55.47
2023-02-18T14:06:34.526Z,55.61
2023-02-18T14:09:26.352Z,55.91
2023-02-18T14:11:56.166Z,56.08
2023-02-18T14:14:25.698Z,56.20
2023-02-18T14:17:34.535Z,56.09
2023-02-18T14:20:06.369Z,56.04
2023-02-18T14:22:44.970Z,56.09
2023-02-18T14:25:22.867Z,56.02
2023-02-18T14:27:55.387Z,56.40
2023-02-18T14:30:23.978Z,56.40
2023-02-18T14:32:53.061Z,56.37
2023-02-18T14:35:38.017Z,56.81
2023-02-18T14:38:24.520Z,56.76
2023-02-18T14:41:16.210Z,56.82
2023-02-18T14:43:53.335Z,56.77
2023-02-18T14:46:43.677Z,56.83
2023-02-18T14:49:27.924Z,56.92
2023-02-18T14:51:56.981Z,57.02
2023-02-18T14:54:25.592Z,56.98
2023-02-18T14:57:05.602Z,56.58
2023-02-18T14:59:38.043Z,56.78
2023-02-18T15:02:35.170Z,56.94
2023-02-18T15:05:18.856Z,57.08
2023-02-18T15:08:04.470Z,57.45
2023-02-18T15:10:48.353Z,57.34
2023-02-18T15:13:27.148Z,57.73
2023-02-18T15:15:57.812Z,57.80
2023-02-18T15:18:28.750Z,58.02
2023-02-18T15:20:56.804Z,58.18
2023-02-18T15:23:24.773Z,58.33
2023-02-18T15:25:53.109Z,58.52
2023-02-18T15:28:32.522Z,58.78
2023-02-18T15:31:01.841Z,58.49
2023-02-18T15:33:29.938Z,58.30
2023-02-18T15:36:02.445Z,58.54
2023-02-18T15:38:30.600Z,58.62
2023-02-18T15:40:59.446Z,58.75
2023-02-18T15:43:27.501Z,58.94
2023-02-18T15:45:57.228Z,59.01
2023-02-18T15:48:45.335Z,59.25
2023-02-18T15:51:22.635Z,59.70
2023-02-18T15:53:52.840Z,59.90
2023-02-18T15:56:44.183Z,59.75
2023-02-18T15:59:24.795Z,60.09
2023-02-18T16:02:02.497Z,60.52
2023-02-18T16:04:32.875Z,60.69
2023-02-18T16:07:03.159Z,60.87
2023-02-18T16:09:33.096Z,61.17
2023-02-18T16:12:06.584Z,61.07
2023-02-18T16:14:46.398Z,61.32
2023-02-18T16:17:15.715Z,61.55
2023-02-18T16:20:16.250Z,61.76
2023-02-18T16:22:47.889Z,62.00
2023-02-18T16:25:27.638Z,61.94
2023-02-18T16:27:58.699Z,62.11
2023-02-18T16:30:29.035Z,62.10
2023-02-18T16:32:58.114Z,62.27
2023-02-18T16:35:30.651Z,62.66
2023-02-18T16:38:01.505Z,62.81
2023-02-18T16:40:32.375Z,63.04
2023-02-18T16:43:02.141Z,63.30
2023-02-18T16:45:38.773Z,63.39
2023-02-18T16:48:07.520Z,63.71
2023-02-18T16:50:35.581Z,63.61
2023-02-18T16:53:03.511Z,63.83
2023-02-18T16:55:31.928Z,63.87
2023-02-18T16:58:01.223Z,64.10
2023-02-18T17:00:29.295Z,64.06
2023-02-18T17:02:58.585Z,64.12
2023-02-18T17:05:28.702Z,64.07
2023-02-18T17:08:25.441Z,64.17
2023-02-18T17:10:55.414Z,64.30
2023-02-18T17:13:28.869Z,64.14
2023-02-18T17:15:57.880Z,64.30
2023-02-18T17:18:26.060Z,64.52
2023-02-18T17:20:54.540Z,48.52
2023-02-18T17:23:23.520Z,43.60
2023-02-18T17:25:53.339Z,40.40
2023-02-18T17:28:23.289Z,37.76
2023-02-18T17:30:56.543Z,35.42
2023-02-18T17:33:25.298Z,33.11
2023-02-18T17:35:53.377Z,31.04
2023-02-18T17:38:21.674Z,29.26
2023-02-18T17:40:50.695Z,27.48
2023-02-18T17:43:18.703Z,25.76
2023-02-18T17:45:52.300Z,24.06
2023-02-18T17:48:21.317Z,21.26
2023-02-18T17:50:49.832Z,15.80
2023-02-18T17:53:18.194Z,13.03
2023-02-18T17:55:47.174Z,11.10
2023-02-18T17:58:15.424Z,9.29
2023-02-18T18:00:52.384Z,7.84
2023-02-18T18:03:22.149Z,6.15
2023-02-18T18:05:52.102Z,4.56
2023-02-18T18:08:20.603Z,2.98
2023-02-18T18:10:53.567Z,1.79
2023-02-18T18:13:28.776Z,0.56
2023-02-18T18:15:58.230Z,0.00
2023-02-18T18:18:27.284Z,0.00
2023-02-18T18:20:59.962Z,0.00
2023-02-18T18:23:29.474Z,0.00
2023-02-18T18:25:57.818Z,0.00
2023-02-18T18:28:26.861Z,0.00
2023-02-18T18:30:55.697Z,0.00
2023-02-18T18:33:26.166Z,0.00
2023-02-18T18:35:55.726Z,0.00
2023-02-18T18:38:24.527Z,0.00
2023-02-18T18:40:53.152Z,0.00
2023-02-18T18:43:26.994Z,0.00
2023-02-18T18:45:55.556Z,0.00
2023-02-18T18:48:26.737Z,0.00
2023-02-18T18:50:55.498Z,0.00
2023-02-18T18:53:31.145Z,0.00
2023-02-18T18:56:01.660Z,0.00
2023-02-18T18:58:29.721Z,0.00
2023-02-18T19:00:59.398Z,0.00
2023-02-18T19:03:27.956Z,0.00
2023-02-18T19:05:56.811Z,0.00
2023-02-18T19:08:24.982Z,0.00
2023-02-18T19:10:57.401Z,0.00
2023-02-18T19:13:30.870Z,0.00
2023-02-18T19:16:27.315Z,0.00
2023-02-18T19:21:53.150Z,0.00
2023-02-18T19:24:21.075Z,0.00
2023-02-18T19:26:48.983Z,0.00
2023-02-18T19:29:19.467Z,0.00
2023-02-18T19:31:47.402Z,0.00
2023-02-18T19:34:15.562Z,0.00
2023-02-18T19:37:52.178Z,0.00
2023-02-18T19:40:22.045Z,0.00
2023-02-18T19:42:50.560Z,0.00
2023-02-18T19:45:18.902Z,0.00
2023-02-18T19:47:47.460Z,0.00
2023-02-18T19:50:16.397Z,0.00
2023-02-18T19:52:44.720Z,0.00
2023-02-18T19:55:13.438Z,0.00
2023-02-18T19:57:41.447Z,0.00
2023-02-18T20:00:35.082Z,0.00
2023-02-18T20:03:03.897Z,0.00
2023-02-18T20:05:31.876Z,0.00
2023-02-18T20:08:01.248Z,0.00
2023-02-18T20:10:29.344Z,0.00
2023-02-18T20:13:00.669Z,0.00
2023-02-18T20:15:28.782Z,0.00
2023-02-18T20:18:01.738Z,0.00
2023-02-18T20:20:29.845Z,0.00
2023-02-18T20:22:57.753Z,0.00
2023-02-18T20:25:27.488Z,0.00
2023-02-18T20:28:01.306Z,0.00
2023-02-18T20:30:31.198Z,0.00
2023-02-18T20:32:59.229Z,0.00
2023-02-18T20:35:27.267Z,0.00
2023-02-18T20:37:55.154Z,0.00
2023-02-18T20:40:23.224Z,0.00
2023-02-18T20:42:53.412Z,0.00
2023-02-18T20:45:22.163Z,0.00
2023-02-18T20:47:50.230Z,0.00
2023-02-18T20:52:45.280Z,0.00
2023-02-18T20:55:13.371Z,0.00
2023-02-18T20:57:42.090Z,0.00
2023-02-18T21:00:11.012Z,0.00
2023-02-18T21:02:39.086Z,0.00
2023-02-18T21:06:03.683Z,0.00
2023-02-18T21:08:34.428Z,0.00
2023-02-18T21:11:04.926Z,0.00
2023-02-18T21:13:33.608Z,0.00
2023-02-18T21:16:05.857Z,0.00
2023-02-18T21:18:34.095Z,0.00
2023-02-18T21:21:03.252Z,0.00
2023-02-18T21:23:33.384Z,0.00
2023-02-18T21:26:03.592Z,0.00
2023-02-18T21:28:31.692Z,0.00
2023-02-18T21:30:59.899Z,0.00
2023-02-18T21:33:27.911Z,0.00
2023-02-18T21:35:56.007Z,0.00
2023-02-18T21:38:24.398Z,0.00
2023-02-18T21:40:52.842Z,0.00
2023-02-18T21:43:21.100Z,0.00
2023-02-18T21:45:49.090Z,0.00
2023-02-18T21:48:36.266Z,0.00
2023-02-18T21:51:04.501Z,0.00
2023-02-18T21:53:32.791Z,0.00
2023-02-18T21:56:11.134Z,0.00
2023-02-18T22:01:20.698Z,0.00
2023-02-18T22:03:48.815Z,0.00
2023-02-18T22:07:08.926Z,0.00
2023-02-18T22:09:39.044Z,0.00
2023-02-18T22:12:07.754Z,0.00
2023-02-18T22:14:36.436Z,0.00
2023-02-18T22:17:05.357Z,0.00
2023-02-18T22:19:34.173Z,0.00
2023-02-18T22:22:05.157Z,0.00
2023-02-18T22:24:35.131Z,0.00
2023-02-18T22:27:03.258Z,0.00
2023-02-18T22:29:31.467Z,0.00
2023-02-18T22:31:59.857Z,0.00
2023-02-18T22:34:28.462Z,0.00
2023-02-18T22:36:56.348Z,0.00
2023-02-18T22:39:24.497Z,0.00
2023-02-18T22:41:55.647Z,0.00
2023-02-18T22:44:24.505Z,0.00
2023-02-18T22:46:55.054Z,0.00
2023-02-18T22:49:23.336Z,0.00
2023-02-18T22:51:52.743Z,0.00
2023-02-18T22:54:20.738Z,0.00
2023-02-18T22:56:48.716Z,0.00
2023-02-18T22:59:19.653Z,0.00
2023-02-18T23:01:53.015Z,0.00
2023-02-18T23:04:21.448Z,0.00
2023-02-18T23:06:49.883Z,0.00
2023-02-18T23:09:20.499Z,0.00
2023-02-18T23:11:50.046Z,0.00
2023-02-18T23:14:20.056Z,0.00
2023-02-18T23:17:12.752Z,0.00
2023-02-18T23:19:45.207Z,0.00
2023-02-18T23:22:14.689Z,0.00
2023-02-18T23:24:44.059Z,0.00
2023-02-18T23:27:13.382Z,0.00
2023-02-18T23:29:41.774Z,0.00
2023-02-18T23:32:09.877Z,0.00
2023-02-18T23:34:38.869Z,0.00
2023-02-18T23:37:09.867Z,0.00
2023-02-18T23:39:39.910Z,0.00
2023-02-18T23:42:10.574Z,0.00
2023-02-18T23:44:40.512Z,0.00
2023-02-18T23:47:08.521Z,0.00
2023-02-18T23:49:37.523Z,0.00
2023-02-18T23:52:06.490Z,0.00
2023-02-18T23:54:34.997Z,0.00
2023-02-18T23:57:03.056Z,0.00
2023-02-18T23:59:32.740Z,0.00
